createdAt,value
2022-10-17T00:02:44.046Z,14.57
2022-10-17T00:06:45.616Z,18.38
2022-10-17T00:11:03.059Z,22.27
2022-10-17T00:15:06.365Z,15.25
2022-10-17T00:19:08.031Z,31.30
2022-10-17T00:27:12.387Z,22.42
2022-10-17T00:31:14.446Z,20.75
2022-10-17T00:35:16.047Z,26.45
2022-10-17T00:39:17.742Z,15.07
2022-10-17T00:43:19.343Z,19.98
2022-10-17T00:47:22.917Z,23.60
2022-10-17T00:51:34.268Z,19.25
2022-10-17T00:55:42.632Z,16.10
2022-10-17T00:59:48.811Z,17.83
2022-10-17T01:03:50.625Z,18.75
2022-10-17T01:07:54.022Z,18.08
2022-10-17T01:12:26.015Z,12.25
2022-10-17T01:16:52.205Z,17.58
2022-10-17T01:21:08.704Z,16.88
2022-10-17T01:25:29.119Z,17.75
2022-10-17T01:29:52.386Z,20.65
2022-10-17T01:38:42.469Z,17.30
2022-10-17T01:43:25.351Z,24.27
2022-10-17T01:47:31.240Z,11.90
2022-10-17T01:51:46.096Z,18.45
2022-10-17T01:55:51.363Z,11.85
2022-10-17T01:59:56.152Z,14.13
2022-10-17T02:04:00.027Z,12.80
2022-10-17T02:08:02.592Z,9.18
2022-10-17T02:12:11.920Z,19.35
2022-10-17T02:16:21.370Z,20.30
2022-10-17T02:20:25.007Z,17.02
2022-10-17T02:24:52.672Z,12.90
2022-10-17T02:29:17.315Z,9.80
2022-10-17T02:33:35.544Z,19.75
2022-10-17T02:37:38.459Z,20.73
2022-10-17T02:41:42.391Z,14.40
2022-10-17T02:45:44.120Z,22.80
2022-10-17T02:49:51.926Z,9.32
2022-10-17T02:54:12.508Z,12.10
2022-10-17T02:58:25.552Z,12.00
2022-10-17T03:02:27.503Z,16.85
2022-10-17T03:06:29.372Z,11.27
2022-10-17T03:10:30.986Z,9.13
2022-10-17T03:14:32.826Z,10.90
2022-10-17T03:18:34.425Z,13.20
2022-10-17T03:22:37.856Z,14.02
2022-10-17T03:26:40.921Z,10.63
2022-10-17T03:30:42.745Z,11.05
2022-10-17T03:34:44.610Z,11.80
2022-10-17T03:38:46.628Z,18.45
2022-10-17T03:42:51.927Z,14.63
2022-10-17T03:46:53.712Z,11.05
2022-10-17T03:51:03.554Z,16.20
2022-10-17T03:55:08.018Z,16.17
2022-10-17T03:59:15.667Z,19.93
2022-10-17T04:03:24.522Z,12.20
2022-10-17T04:11:50.675Z,17.80
2022-10-17T04:16:01.331Z,19.70
2022-10-17T04:20:04.291Z,25.27
2022-10-17T04:24:06.345Z,8.30
2022-10-17T04:28:20.902Z,13.40
2022-10-17T04:32:22.611Z,15.98
2022-10-17T04:36:39.258Z,12.80
2022-10-17T04:40:40.838Z,22.95
2022-10-17T04:48:45.722Z,18.75
2022-10-17T04:52:47.858Z,22.10
2022-10-17T04:56:49.962Z,20.10
2022-10-17T05:00:51.807Z,24.60
2022-10-17T05:05:00.595Z,20.33
2022-10-17T05:09:02.279Z,22.77
2022-10-17T05:13:04.486Z,20.85
2022-10-17T05:17:08.796Z,13.82
2022-10-17T05:21:10.644Z,16.63
2022-10-17T05:25:13.335Z,13.85
2022-10-17T05:29:15.101Z,18.45
2022-10-17T05:33:23.062Z,14.20
2022-10-17T05:37:24.770Z,17.98
2022-10-17T05:41:29.692Z,16.02
2022-10-17T05:45:31.381Z,14.00
2022-10-17T05:49:44.973Z,15.45
2022-10-17T05:53:51.177Z,12.18
2022-10-17T05:58:00.299Z,24.40
2022-10-17T06:02:06.739Z,18.92
2022-10-17T06:06:14.335Z,15.43
2022-10-17T06:10:19.190Z,17.83
2022-10-17T06:14:21.053Z,20.67
2022-10-17T06:18:26.798Z,15.00
2022-10-17T06:22:30.101Z,27.50
2022-10-17T06:26:32.094Z,14.32
2022-10-17T06:30:34.085Z,18.60
2022-10-17T06:34:35.870Z,23.60
2022-10-17T06:38:37.474Z,19.70
2022-10-17T06:42:43.774Z,20.48
2022-10-17T06:47:20.502Z,27.35
2022-10-17T06:51:23.705Z,24.13
2022-10-17T06:55:31.337Z,23.83
2022-10-17T06:59:47.191Z,17.23
2022-10-17T07:03:56.114Z,16.52
2022-10-17T07:07:58.128Z,22.02
2022-10-17T07:12:00.277Z,21.92
2022-10-17T07:16:02.309Z,21.02
2022-10-17T07:20:06.589Z,18.20
2022-10-17T07:24:10.355Z,15.07
2022-10-17T07:28:15.163Z,21.42
2022-10-17T07:32:19.251Z,18.95
2022-10-17T07:36:21.091Z,20.90
2022-10-17T07:40:23.034Z,12.45
2022-10-17T07:44:24.911Z,15.98
2022-10-17T07:48:28.055Z,14.65
2022-10-17T07:52:30.562Z,16.25
2022-10-17T07:56:33.506Z,13.65
2022-10-17T08:00:36.509Z,16.90
2022-10-17T08:04:39.215Z,15.02
2022-10-17T08:08:42.019Z,20.85
2022-10-17T08:16:46.524Z,11.48
2022-10-17T08:24:50.355Z,8.98
2022-10-17T08:28:52.034Z,10.35
2022-10-17T08:32:56.069Z,10.77
2022-10-17T08:36:57.725Z,12.00
2022-10-17T08:41:02.904Z,7.85
2022-10-17T08:45:30.243Z,8.30
2022-10-17T08:49:51.344Z,7.47
2022-10-17T08:54:13.044Z,11.32
2022-10-17T08:58:20.071Z,7.95
2022-10-17T09:02:47.254Z,6.13
2022-10-17T09:07:09.699Z,7.25
2022-10-17T09:11:13.875Z,12.35
2022-10-17T09:15:43.080Z,8.48
2022-10-17T09:20:04.419Z,5.82
2022-10-17T09:24:17.393Z,7.25
2022-10-17T09:28:19.022Z,6.57
2022-10-17T09:32:25.467Z,8.55
2022-10-17T09:36:31.161Z,7.55
2022-10-17T09:40:34.731Z,10.68
2022-10-17T09:44:47.938Z,6.90
2022-10-17T09:48:55.240Z,8.05
2022-10-17T09:53:01.776Z,8.10
2022-10-17T09:57:07.285Z,5.93
2022-10-17T10:01:29.740Z,5.65
2022-10-17T10:05:31.374Z,4.35
2022-10-17T10:09:39.369Z,8.38
2022-10-17T10:13:43.114Z,6.70
2022-10-17T10:17:44.833Z,8.15
2022-10-17T10:22:01.350Z,5.90
2022-10-17T10:26:20.961Z,8.65
2022-10-17T10:30:28.661Z,8.30
2022-10-17T10:34:31.477Z,8.45
2022-10-17T10:38:34.760Z,5.47
2022-10-17T10:42:39.860Z,7.93
2022-10-17T10:46:41.649Z,7.50
2022-10-17T10:50:50.455Z,6.03
2022-10-17T10:55:07.071Z,8.15
2022-10-17T10:59:08.576Z,10.63
2022-10-17T11:03:19.543Z,5.00
2022-10-17T11:07:29.842Z,6.78
2022-10-17T11:11:47.289Z,4.85
2022-10-17T11:16:13.317Z,4.47
2022-10-17T11:20:19.892Z,10.90
2022-10-17T11:24:27.857Z,9.40
2022-10-17T11:28:30.164Z,7.07
2022-10-17T11:32:44.431Z,6.55
2022-10-17T11:36:57.902Z,7.47
2022-10-17T11:41:00.409Z,5.72
2022-10-17T11:45:14.193Z,6.68
2022-10-17T11:49:21.820Z,5.53
2022-10-17T11:53:28.731Z,8.13
2022-10-17T11:57:34.982Z,5.45
2022-10-17T12:02:10.965Z,7.95
2022-10-17T12:06:34.612Z,5.38
2022-10-17T12:11:01.694Z,9.70
2022-10-17T12:15:24.314Z,4.60
2022-10-17T12:19:30.977Z,6.22
2022-10-17T12:23:32.930Z,7.05
2022-10-17T12:31:43.943Z,7.47
2022-10-17T12:35:45.534Z,4.60
2022-10-17T12:39:47.155Z,7.10
2022-10-17T12:47:52.671Z,6.82
2022-10-17T12:52:35.269Z,7.95
2022-10-17T12:56:40.438Z,6.78
2022-10-17T13:01:18.750Z,7.32
2022-10-17T13:05:32.837Z,8.93
2022-10-17T13:09:42.563Z,6.13
2022-10-17T13:13:53.920Z,6.05
2022-10-17T13:18:00.171Z,7.33
2022-10-17T13:27:34.741Z,5.53
2022-10-17T13:31:38.540Z,8.02
2022-10-17T13:36:00.404Z,6.10
2022-10-17T13:40:17.449Z,9.98
2022-10-17T13:44:32.121Z,11.00
2022-10-17T13:48:37.534Z,11.15
2022-10-17T13:52:48.604Z,7.30
2022-10-17T13:56:58.389Z,7.45
2022-10-17T14:01:01.425Z,13.70
2022-10-17T14:05:23.012Z,8.60
2022-10-17T14:09:30.821Z,7.93
2022-10-17T14:13:36.236Z,7.40
2022-10-17T14:17:38.656Z,9.65
2022-10-17T14:21:44.502Z,7.30
2022-10-17T14:25:46.531Z,9.40
2022-10-17T14:29:53.923Z,6.33
2022-10-17T14:33:56.318Z,7.82
2022-10-17T14:46:07.126Z,7.75
2022-10-17T14:54:29.215Z,11.35
2022-10-17T14:58:33.168Z,7.80
2022-10-17T15:02:35.012Z,6.57
2022-10-17T15:06:36.772Z,13.27
2022-10-17T15:10:41.971Z,6.57
2022-10-17T15:14:44.735Z,6.18
2022-10-17T15:18:46.693Z,8.75
2022-10-17T15:22:48.715Z,13.98
2022-10-17T15:26:50.421Z,11.43
2022-10-17T15:30:52.088Z,6.93
2022-10-17T15:34:53.678Z,8.00
2022-10-17T15:38:58.130Z,26.33
2022-10-17T15:42:59.860Z,11.85
2022-10-17T15:47:01.801Z,13.93
2022-10-17T15:51:03.423Z,11.95
2022-10-17T15:55:05.727Z,9.13
2022-10-17T15:59:13.920Z,15.07
2022-10-17T16:03:15.603Z,17.55
2022-10-17T16:07:18.700Z,14.97
2022-10-17T16:11:26.389Z,13.13
2022-10-17T16:15:28.437Z,11.85
2022-10-17T16:19:30.880Z,15.45
2022-10-17T16:23:32.569Z,11.13
2022-10-17T16:27:34.330Z,13.10
2022-10-17T16:31:39.878Z,18.27
2022-10-17T16:35:41.658Z,15.00
2022-10-17T16:39:43.258Z,9.90
2022-10-17T16:43:45.146Z,17.35
2022-10-17T16:47:47.477Z,11.80
2022-10-17T16:51:49.067Z,11.23
2022-10-17T16:56:04.481Z,17.42
2022-10-17T17:00:07.535Z,14.82
2022-10-17T17:04:09.518Z,25.38
2022-10-17T17:08:12.628Z,15.83
2022-10-17T17:12:14.477Z,15.40
2022-10-17T17:16:18.976Z,22.98
2022-10-17T17:20:20.564Z,7.60
2022-10-17T17:24:22.311Z,12.35
2022-10-17T17:28:24.132Z,12.93
2022-10-17T17:32:25.735Z,14.13
2022-10-17T17:36:32.447Z,13.73
2022-10-17T17:40:34.656Z,14.48
2022-10-17T17:44:36.373Z,13.00
2022-10-17T17:48:39.060Z,23.15
2022-10-17T18:00:45.610Z,13.15
2022-10-17T18:04:48.526Z,9.90
2022-10-17T18:08:54.818Z,11.30
2022-10-17T18:12:56.606Z,15.50
2022-10-17T18:16:58.619Z,18.93
2022-10-17T18:21:01.649Z,20.75
2022-10-17T18:25:03.551Z,14.32
2022-10-17T18:29:05.536Z,20.13
2022-10-17T18:33:07.270Z,18.37
2022-10-17T18:37:09.023Z,18.40
2022-10-17T18:41:16.733Z,17.38
2022-10-17T18:45:18.489Z,20.90
2022-10-17T18:49:25.882Z,10.32
2022-10-17T18:53:28.591Z,11.77
2022-10-17T19:01:32.246Z,20.00
2022-10-17T19:05:34.873Z,14.23
2022-10-17T19:09:36.578Z,17.88
2022-10-17T19:13:38.308Z,13.52
2022-10-17T19:17:40.003Z,11.38
2022-10-17T19:21:42.527Z,11.30
2022-10-17T19:25:44.110Z,12.32
2022-10-17T19:29:45.871Z,13.68
2022-10-17T19:33:51.268Z,19.52
2022-10-17T19:37:52.926Z,12.82
2022-10-17T19:41:54.666Z,28.08
2022-10-17T19:46:01.295Z,26.17
2022-10-17T19:58:07.146Z,10.95
2022-10-17T20:02:11.723Z,14.93
2022-10-17T20:06:14.312Z,14.70
2022-10-17T20:14:17.622Z,18.00
2022-10-17T20:18:19.243Z,13.68
2022-10-17T20:22:20.803Z,18.35
2022-10-17T20:26:37.151Z,17.38
2022-10-17T20:30:46.540Z,21.80
2022-10-17T20:34:48.145Z,19.83
2022-10-17T20:38:55.237Z,21.60
2022-10-17T20:42:57.354Z,13.95
2022-10-17T20:47:02.349Z,16.58
2022-10-17T20:51:18.282Z,20.85
2022-10-17T20:55:19.904Z,14.98
2022-10-17T20:59:21.664Z,10.65
2022-10-17T21:03:23.704Z,11.45
2022-10-17T21:07:25.783Z,20.42
2022-10-17T21:11:28.830Z,19.63
2022-10-17T21:15:30.412Z,19.55
2022-10-17T21:19:32.126Z,14.25
2022-10-17T21:23:33.834Z,17.70
2022-10-17T21:27:35.561Z,16.45
2022-10-17T21:31:39.118Z,15.88
2022-10-17T21:35:40.768Z,17.80
2022-10-17T21:39:42.900Z,18.50
2022-10-17T21:43:44.570Z,20.37
2022-10-17T21:48:11.174Z,11.57
2022-10-17T21:52:07.924Z,24.67
2022-10-17T21:56:11.933Z,16.38
2022-10-17T22:00:13.969Z,13.73
2022-10-17T22:04:17.423Z,19.37
2022-10-17T22:08:18.996Z,17.45
2022-10-17T22:12:23.637Z,24.38
2022-10-17T22:16:25.624Z,21.50
2022-10-17T22:20:27.310Z,21.23
2022-10-17T22:24:29.026Z,25.67
2022-10-17T22:28:30.660Z,22.15
2022-10-17T22:32:32.513Z,17.48
2022-10-17T22:36:35.346Z,23.98
2022-10-17T22:44:38.649Z,25.17
2022-10-17T22:48:40.438Z,16.75
2022-10-17T22:52:42.053Z,20.63
2022-10-17T22:56:43.645Z,14.15
2022-10-17T23:00:45.348Z,23.38
2022-10-17T23:04:47.059Z,18.38
2022-10-17T23:08:49.532Z,11.50
2022-10-17T23:12:51.098Z,20.75
2022-10-17T23:16:52.675Z,23.10
2022-10-17T23:20:55.256Z,19.50
2022-10-17T23:24:56.873Z,22.42
2022-10-17T23:29:01.685Z,20.42
2022-10-17T23:33:03.909Z,29.40
2022-10-17T23:37:05.457Z,28.92
2022-10-17T23:41:07.650Z,23.67
2022-10-17T23:45:09.766Z,23.75
2022-10-17T23:49:11.557Z,15.57
2022-10-17T23:53:13.166Z,24.48
2022-10-17T23:57:14.912Z,20.65
